Time;durP1;ratioP1;P1;durP2;ratioP2;P2;SDS_P1;SDS_P2;PMS_P1;PMS_P2;Temp;Humidity;BMP_temperature;BMP_pressure;BME280_temperature;BME280_humidity;BME280_pressure;Samples;Min_cycle;Max_cycle;Signal;HPM_P1;HPM_P2
2023/10/06 00:01:03;;;;;;;8.93;1.67;;;;;;;22.22;100.00;102166.59;4929963;29;20048;-46
2023/10/06 00:03:29;;;;;;;6.10;2.25;;;;;;;22.23;100.00;102161.69;4929431;29;20048;-49
2023/10/06 00:05:56;;;;;;;1.73;1.17;;;;;;;22.26;100.00;102155.91;4929194;29;20054;-46
2023/10/06 00:08:31;;;;;;;5.85;1.52;;;;;;;22.27;100.00;102156.72;4927155;29;20082;-52
2023/10/06 00:11:11;;;;;;;10.57;1.67;;;;;;;22.27;100.00;102159.53;4930258;29;20055;-48
2023/10/06 00:13:38;;;;;;;5.05;1.55;;;;;;;22.29;100.00;102160.66;4925391;29;20107;-48
2023/10/06 00:16:07;;;;;;;7.30;1.42;;;;;;;22.28;100.00;102156.25;4932541;29;20148;-48
2023/10/06 00:18:36;;;;;;;5.68;1.88;;;;;;;22.25;100.00;102162.03;4933327;29;20094;-48
2023/10/06 00:21:14;;;;;;;8.35;1.90;;;;;;;22.21;100.00;102156.53;4932025;29;20424;-47
2023/10/06 00:23:44;;;;;;;5.03;1.60;;;;;;;22.21;100.00;102152.91;4927638;29;20625;-46
2023/10/06 00:26:12;;;;;;;3.25;1.83;;;;;;;22.22;100.00;102168.63;4931528;29;20090;-46
2023/10/06 00:28:39;;;;;;;5.35;1.50;;;;;;;22.17;100.00;102162.31;4933705;29;20051;-48
2023/10/06 00:31:08;;;;;;;4.20;1.58;;;;;;;22.23;100.00;102153.19;4931839;29;20126;-48
2023/10/06 00:33:38;;;;;;;5.05;1.60;;;;;;;22.20;100.00;102165.50;4933301;29;20058;-48
2023/10/06 00:36:17;;;;;;;4.95;1.58;;;;;;;22.24;100.00;102171.81;4933145;29;20071;-48
2023/10/06 00:38:45;;;;;;;3.28;1.65;;;;;;;22.23;100.00;102164.53;4931932;29;20499;-49
2023/10/06 00:41:14;;;;;;;4.20;1.42;;;;;;;22.19;100.00;102161.84;4933484;29;20392;-49
2023/10/06 00:43:43;;;;;;;3.03;1.63;;;;;;;22.20;100.00;102160.59;4933763;29;20039;-49
2023/10/06 00:46:12;;;;;;;7.82;1.70;;;;;;;22.22;100.00;102160.13;4933827;29;20140;-47
2023/10/06 00:48:41;;;;;;;3.38;1.40;;;;;;;22.22;100.00;102151.63;4929745;29;20126;-50
2023/10/06 00:51:13;;;;;;;2.28;1.20;;;;;;;22.21;100.00;102153.69;4929937;29;20055;-48
2023/10/06 00:53:41;;;;;;;2.97;1.33;;;;;;;22.23;100.00;102150.38;4933249;29;20040;-50
2023/10/06 00:56:11;;;;;;;4.25;1.55;;;;;;;22.24;100.00;102151.97;4933318;29;20044;-48
2023/10/06 00:58:41;;;;;;;2.13;1.30;;;;;;;22.24;100.00;102155.56;4933537;29;20039;-49
2023/10/06 01:01:12;;;;;;;6.05;1.40;;;;;;;22.23;100.00;102153.19;4932598;29;20582;-49
2023/10/06 01:03:44;;;;;;;3.05;1.48;;;;;;;22.18;100.00;102146.13;4931777;29;20052;-50
2023/10/06 01:06:15;;;;;;;4.32;1.17;;;;;;;22.21;100.00;102142.38;4933428;29;20059;-48
2023/10/06 01:08:53;;;;;;;4.57;1.35;;;;;;;22.17;100.00;102139.66;4928017;29;20518;-46
2023/10/06 01:11:26;;;;;;;3.90;1.30;;;;;;;22.21;100.00;102131.03;4914747;29;20581;-49
2023/10/06 01:13:55;;;;;;;4.13;1.60;;;;;;;22.19;100.00;102130.69;4929623;29;20062;-48
2023/10/06 01:16:25;;;;;;;3.20;1.30;;;;;;;22.18;100.00;102131.97;4933161;29;20054;-51
2023/10/06 01:18:52;;;;;;;3.08;1.63;;;;;;;22.17;100.00;102122.66;4931284;29;20056;-49
2023/10/06 01:21:28;;;;;;;2.72;1.20;;;;;;;22.18;100.00;102124.22;4931303;29;20052;-48
2023/10/06 01:23:58;;;;;;;2.17;1.23;;;;;;;22.20;100.00;102114.50;4928849;29;20136;-50
2023/10/06 01:26:25;;;;;;;4.63;1.10;;;;;;;22.17;100.00;102106.94;4933178;29;20220;-49
2023/10/06 01:28:53;;;;;;;5.22;1.50;;;;;;;22.21;100.00;102101.91;4932907;29;20495;-50
2023/10/06 01:31:19;;;;;;;2.13;1.15;;;;;;;22.23;100.00;102099.38;4932542;29;20126;-48
2023/10/06 01:33:46;;;;;;;3.33;1.35;;;;;;;22.20;100.00;102103.16;4931383;29;20059;-49
2023/10/06 01:36:21;;;;;;;4.35;1.25;;;;;;;22.17;100.00;102115.44;4931724;29;20101;-50
2023/10/06 01:38:48;;;;;;;2.53;1.23;;;;;;;22.23;100.00;102105.84;4932544;29;20482;-48
2023/10/06 01:41:15;;;;;;;2.72;1.85;;;;;;;22.27;100.00;102097.22;4930997;29;20044;-50
2023/10/06 01:43:41;;;;;;;4.43;1.58;;;;;;;22.26;100.00;102102.09;4931800;29;20527;-48
2023/10/06 01:46:19;;;;;;;3.08;1.50;;;;;;;22.21;100.00;102099.06;4931046;29;20091;-49
2023/10/06 01:48:46;;;;;;;2.53;1.30;;;;;;;22.22;100.00;102112.78;4931163;29;20055;-49
2023/10/06 01:51:15;;;;;;;2.60;1.30;;;;;;;22.20;100.00;102100.34;4931578;29;20094;-50
2023/10/06 01:53:42;;;;;;;5.72;1.70;;;;;;;22.22;100.00;102094.97;4932213;29;20079;-47
2023/10/06 01:56:08;;;;;;;4.82;1.23;;;;;;;22.22;100.00;102094.97;4932623;29;20055;-49
2023/10/06 01:58:36;;;;;;;3.80;1.40;;;;;;;22.21;100.00;102096.25;4931202;29;20047;-51
2023/10/06 02:01:05;;;;;;;4.85;1.27;;;;;;;22.22;100.00;102089.31;4929778;29;20068;-49
2023/10/06 02:03:38;;;;;;;4.65;1.75;;;;;;;22.25;100.00;102079.88;4930439;29;20047;-47
2023/10/06 02:06:05;;;;;;;3.45;1.25;;;;;;;22.26;100.00;102075.78;4931987;29;20787;-48
2023/10/06 02:08:31;;;;;;;4.82;1.40;;;;;;;22.28;100.00;102068.41;4931989;29;20083;-47
2023/10/06 02:11:01;;;;;;;2.22;1.20;;;;;;;22.29;100.00;102070.00;4914630;29;20047;-46
2023/10/06 02:13:29;;;;;;;1.95;1.10;;;;;;;22.28;100.00;102076.91;4930708;29;20463;-47
2023/10/06 02:15:58;;;;;;;2.67;1.30;;;;;;;22.29;100.00;102072.03;4929556;29;20066;-48
2023/10/06 02:18:35;;;;;;;1.80;1.30;;;;;;;22.26;100.00;102072.94;4932129;29;20047;-47
2023/10/06 02:21:14;;;;;;;2.60;1.15;;;;;;;22.22;100.00;102066.66;4929233;29;20049;-48
2023/10/06 02:23:42;;;;;;;1.67;1.05;;;;;;;22.23;100.00;102074.69;4926438;29;20624;-47
2023/10/06 02:26:12;;;;;;;3.08;1.42;;;;;;;22.27;100.00;102074.56;4931352;29;20130;-47
2023/10/06 02:28:43;;;;;;;2.88;1.60;;;;;;;22.25;100.00;102079.88;4929835;29;20059;-41
2023/10/06 02:31:11;;;;;;;1.92;1.05;;;;;;;22.36;100.00;102077.44;4928653;29;20154;-40
2023/10/06 02:33:39;;;;;;;3.33;1.40;;;;;;;22.36;100.00;102078.22;4931103;29;20463;-39
2023/10/06 02:36:17;;;;;;;4.43;1.35;;;;;;;22.38;100.00;102077.78;4913411;29;20213;-41
2023/10/06 02:38:48;;;;;;;8.05;1.77;;;;;;;22.38;100.00;102077.78;4931879;29;20111;-41
2023/10/06 02:41:21;;;;;;;3.35;1.20;;;;;;;22.38;100.00;102075.72;4931648;29;20055;-40
2023/10/06 02:43:52;;;;;;;3.72;1.35;;;;;;;22.37;100.00;102079.81;4929958;29;20412;-39
2023/10/06 02:46:25;;;;;;;3.70;1.27;;;;;;;22.38;100.00;102080.59;4931438;29;20090;-39
2023/10/06 02:48:52;;;;;;;2.33;1.00;;;;;;;22.37;100.00;102076.19;4931171;29;20062;-40
2023/10/06 02:51:30;;;;;;;3.53;1.02;;;;;;;22.37;100.00;102073.38;4930859;29;20200;-44
2023/10/06 02:56:57;;;;;;;2.95;1.42;;;;;;;22.34;100.00;102082.78;4901767;29;20058;-41
2023/10/06 02:59:34;;;;;;;3.35;1.20;;;;;;;22.34;100.00;102080.72;4930687;29;20851;-39
2023/10/06 03:02:06;;;;;;;1.20;0.95;;;;;;;22.32;100.00;102080.44;4929944;29;20070;-38
2023/10/06 03:04:36;;;;;;;2.30;0.98;;;;;;;22.32;100.00;102082.47;4930475;29;20649;-47
2023/10/06 03:07:05;;;;;;;4.75;1.45;;;;;;;22.33;100.00;102081.19;4931311;29;20051;-47
2023/10/06 03:09:38;;;;;;;2.38;1.35;;;;;;;22.31;100.00;102076.00;4931210;29;20047;-50
2023/10/06 03:12:15;;;;;;;1.88;1.00;;;;;;;22.28;100.00;102076.91;4931493;29;20406;-48
2023/10/06 03:14:42;;;;;;;3.10;1.35;;;;;;;22.29;100.00;102072.03;4926223;29;20059;-48
2023/10/06 03:17:10;;;;;;;3.95;1.38;;;;;;;22.27;100.00;102063.22;4929940;29;20142;-49
2023/10/06 03:19:41;;;;;;;3.25;1.25;;;;;;;22.27;100.00;102063.22;4930983;29;20059;-49
2023/10/06 03:22:14;;;;;;;2.13;1.00;;;;;;;22.28;100.00;102059.13;4931211;29;20491;-48
2023/10/06 03:25:00;;;;;;;4.13;1.10;;;;;;;22.25;100.00;102068.56;4931318;29;20039;-46
2023/10/06 03:27:27;;;;;;;;;;;;;;;22.25;100.00;102065.72;4931296;29;20514;-47
2023/10/06 03:32:31;;;;;;;2.17;0.90;;;;;;;22.22;100.00;102067.44;4928710;29;20048;-47
2023/10/06 03:35:06;;;;;;;1.58;1.20;;;;;;;22.24;100.00;102064.16;4930817;29;20474;-46
2023/10/06 03:37:39;;;;;;;5.88;1.10;;;;;;;22.24;100.00;102076.25;4931211;29;20399;-45
2023/10/06 03:40:11;;;;;;;8.00;1.25;;;;;;;22.25;100.00;102071.38;4930721;29;20080;-49
2023/10/06 03:42:39;;;;;;;3.17;1.35;;;;;;;22.25;100.00;102075.03;4930968;29;20462;-45
2023/10/06 03:45:18;;;;;;;2.00;0.85;;;;;;;22.24;100.00;102073.41;4931579;29;20047;-46
2023/10/06 03:47:48;;;;;;;2.42;1.10;;;;;;;22.24;100.00;102081.16;4928676;29;20735;-46
2023/10/06 03:50:17;;;;;;;2.13;1.10;;;;;;;22.25;100.00;102075.03;4934522;29;20059;-45
2023/10/06 03:52:43;;;;;;;2.10;1.30;;;;;;;22.23;100.00;102068.22;4934150;29;20048;-44
2023/10/06 03:55:12;;;;;;;2.38;1.17;;;;;;;22.24;100.00;102070.59;4934709;29;20079;-45
2023/10/06 03:57:40;;;;;;;2.30;1.10;;;;;;;22.23;100.00;102065.38;4934752;29;20071;-46
2023/10/06 04:00:08;;;;;;;3.22;1.13;;;;;;;22.23;100.00;102065.38;4934381;29;20058;-45
2023/10/06 04:02:40;;;;;;;2.80;1.35;;;;;;;22.23;100.00;102063.34;4932326;29;20043;-45
2023/10/06 04:05:07;;;;;;;2.08;1.40;;;;;;;22.24;100.00;102075.47;4932684;29;20058;-45
2023/10/06 04:07:33;;;;;;;2.15;0.95;;;;;;;22.25;100.00;102074.22;4933221;29;20054;-48
2023/10/06 04:10:07;;;;;;;4.00;1.25;;;;;;;22.22;100.00;102078.78;4932376;29;20110;-45
2023/10/06 04:12:34;;;;;;;3.42;1.20;;;;;;;22.24;100.00;102070.59;4934165;29;20087;-46
2023/10/06 04:15:02;;;;;;;2.90;1.13;;;;;;;22.21;100.00;102059.41;4933971;29;20051;-46
2023/10/06 04:17:29;;;;;;;3.45;1.25;;;;;;;22.20;100.00;102055.00;4934157;29;20131;-47
2023/10/06 04:19:56;;;;;;;2.35;1.23;;;;;;;22.21;100.00;102059.41;4934011;29;20083;-47
2023/10/06 04:22:22;;;;;;;1.60;1.00;;;;;;;22.21;100.00;102056.59;4932957;29;20051;-48
2023/10/06 04:24:49;;;;;;;4.28;1.20;;;;;;;22.19;100.00;102051.38;4932687;29;20143;-48
2023/10/06 04:27:16;;;;;;;1.90;1.10;;;;;;;22.20;100.00;102033.13;4932553;29;20059;-48
2023/10/06 04:29:43;;;;;;;2.13;1.10;;;;;;;22.21;100.00;102031.09;4933770;29;20063;-48
2023/10/06 04:32:13;;;;;;;1.98;1.15;;;;;;;22.17;100.00;102026.34;4932597;29;20052;-44
2023/10/06 04:34:40;;;;;;;2.63;1.20;;;;;;;22.18;100.00;102025.09;4934050;29;20192;-46
2023/10/06 04:37:07;;;;;;;2.45;1.17;;;;;;;22.17;100.00;102024.78;4932115;29;20055;-46
2023/10/06 04:39:38;;;;;;;2.10;1.23;;;;;;;22.18;100.00;102021.50;4933434;29;20052;-48
2023/10/06 04:42:05;;;;;;;1.83;1.05;;;;;;;22.20;100.00;102018.97;4933654;29;20058;-47
2023/10/06 04:44:31;;;;;;;1.50;1.00;;;;;;;22.18;100.00;102022.25;4933350;29;20134;-46
2023/10/06 04:46:58;;;;;;;3.22;1.40;;;;;;;22.16;100.00;102024.00;4931556;29;20051;-45
2023/10/06 04:49:25;;;;;;;1.10;0.88;;;;;;;22.17;100.00;102019.88;4933923;29;20081;-48
2023/10/06 04:51:51;;;;;;;1.25;0.85;;;;;;;22.14;100.00;102015.16;4933011;29;20051;-45
2023/10/06 04:54:20;;;;;;;2.13;0.93;;;;;;;22.17;100.00;102013.47;4932221;29;20056;-45
2023/10/06 04:56:48;;;;;;;1.80;1.00;;;;;;;22.16;100.00;102012.66;4932719;29;20075;-46
2023/10/06 04:59:15;;;;;;;4.18;1.13;;;;;;;22.17;100.00;102016.28;4933362;29;20051;-47
2023/10/06 05:01:45;;;;;;;1.80;1.05;;;;;;;22.14;100.00;102013.13;4931723;29;20134;-45
2023/10/06 05:04:11;;;;;;;1.85;0.98;;;;;;;22.14;100.00;102007.47;4933373;29;20070;-48
2023/10/06 05:06:38;;;;;;;4.10;1.15;;;;;;;22.13;100.00;102008.72;4933301;29;20055;-47
2023/10/06 05:09:06;;;;;;;2.92;1.08;;;;;;;22.13;100.00;102002.25;4931284;29;20578;-48
2023/10/06 05:11:33;;;;;;;4.78;1.48;;;;;;;22.17;100.00;102010.63;4932771;29;20139;-48
2023/10/06 05:14:01;;;;;;;1.83;1.02;;;;;;;22.15;100.00;102005.44;4932837;29;20075;-48
2023/10/06 05:16:27;;;;;;;1.65;0.88;;;;;;;22.14;100.00;102010.28;4933139;29;20094;-48
2023/10/06 05:18:55;;;;;;;2.78;1.30;;;;;;;22.17;100.00;102002.13;4931497;29;20606;-45
2023/10/06 05:21:21;;;;;;;1.33;0.88;;;;;;;22.15;100.00;102002.59;4932901;29;20222;-47
2023/10/06 05:23:48;;;;;;;2.13;1.10;;;;;;;22.13;100.00;102000.22;4931129;29;20048;-47
2023/10/06 05:26:15;;;;;;;2.95;1.27;;;;;;;22.14;100.00;101998.97;4932774;29;20052;-48
2023/10/06 05:28:43;;;;;;;2.13;0.95;;;;;;;22.13;100.00;102002.25;4932707;29;20154;-48
2023/10/06 05:31:11;;;;;;;1.60;1.00;;;;;;;22.17;100.00;102007.78;4932456;29;20163;-44
2023/10/06 05:33:40;;;;;;;1.83;0.95;;;;;;;22.13;100.00;102005.88;4932775;29;20051;-46
2023/10/06 05:36:09;;;;;;;3.03;1.00;;;;;;;22.15;100.00;102009.03;4932748;29;20082;-48
2023/10/06 05:38:37;;;;;;;1.75;0.90;;;;;;;22.15;100.00;102005.44;4930905;29;20134;-48
2023/10/06 05:41:07;;;;;;;2.78;1.00;;;;;;;22.13;100.00;102008.72;4931997;29;20662;-46
2023/10/06 05:43:34;;;;;;;2.63;1.05;;;;;;;22.12;100.00;102006.34;4932581;29;20048;-50
2023/10/06 05:46:03;;;;;;;1.50;0.80;;;;;;;22.13;100.00;102005.88;4931006;29;20051;-46
2023/10/06 05:48:30;;;;;;;2.10;1.00;;;;;;;22.13;100.00;102007.16;4932538;29;20735;-48
2023/10/06 05:51:04;;;;;;;2.28;1.17;;;;;;;22.11;100.00;102014.06;4931808;29;20062;-45
2023/10/06 05:53:38;;;;;;;1.45;0.90;;;;;;;22.13;100.00;102012.81;4932298;29;20130;-47
2023/10/06 05:56:08;;;;;;;4.22;1.15;;;;;;;22.09;100.00;102019.41;4930967;29;20079;-49
2023/10/06 05:58:37;;;;;;;1.98;1.08;;;;;;;22.18;100.00;102013.75;4928434;29;20058;-42
2023/10/06 06:01:10;;;;;;;3.97;1.15;;;;;;;22.19;100.00;102011.72;4925680;29;20438;-38
2023/10/06 06:03:44;;;;;;;3.08;1.42;;;;;;;22.18;100.00;102010.16;4928269;29;20124;-40
2023/10/06 06:06:16;;;;;;;3.33;0.82;;;;;;;22.20;100.00;102016.13;4930247;29;20056;-38
2023/10/06 06:08:47;;;;;;;1.58;1.10;;;;;;;22.20;100.00;102021.03;4931717;29;20107;-39
2023/10/06 06:11:14;;;;;;;3.92;1.00;;;;;;;22.17;100.00;102022.72;4932772;29;20052;-39
2023/10/06 06:13:42;;;;;;;1.63;0.82;;;;;;;22.17;100.00;102036.13;4932471;29;20062;-39
2023/10/06 06:16:08;;;;;;;3.75;1.00;;;;;;;22.17;100.00;102034.84;4914701;29;20083;-38
2023/10/06 06:18:40;;;;;;;4.15;1.15;;;;;;;22.19;100.00;102045.72;4929875;29;20055;-40
2023/10/06 06:21:09;;;;;;;2.63;0.88;;;;;;;22.18;100.00;102041.31;4926771;29;20048;-41
2023/10/06 06:23:35;;;;;;;3.03;0.90;;;;;;;22.17;100.00;102040.53;4927570;29;20102;-39
2023/10/06 06:26:02;;;;;;;3.85;1.00;;;;;;;22.17;100.00;102036.13;4931363;29;20542;-38
2023/10/06 06:28:29;;;;;;;5.18;0.90;;;;;;;22.18;100.00;102042.09;4939908;29;20056;-38
2023/10/06 06:30:55;;;;;;;1.67;0.90;;;;;;;22.19;100.00;102045.72;4931628;29;20680;-38
2023/10/06 06:33:22;;;;;;;4.03;1.13;;;;;;;22.18;100.00;102038.50;4931663;29;20054;-38
2023/10/06 06:35:49;;;;;;;1.80;0.98;;;;;;;22.19;100.00;102042.88;4931540;29;20066;-38
2023/10/06 06:38:18;;;;;;;2.30;1.00;;;;;;;22.17;100.00;102046.19;4929766;29;20418;-39
2023/10/06 06:40:46;;;;;;;6.25;1.20;;;;;;;22.17;100.00;102046.19;4927962;29;20470;-40
2023/10/06 06:43:12;;;;;;;3.00;0.90;;;;;;;22.18;100.00;102041.31;4923284;29;20056;-39
2023/10/06 06:45:39;;;;;;;0.98;0.77;;;;;;;22.17;100.00;102034.84;4937835;29;20115;-39
2023/10/06 06:48:13;;;;;;;2.10;1.23;;;;;;;22.18;100.00;102027.16;4925243;29;20056;-42
2023/10/06 06:50:42;;;;;;;1.92;0.98;;;;;;;22.17;100.00;102022.72;4930033;29;20150;-39
2023/10/06 06:53:10;;;;;;;2.15;0.90;;;;;;;22.18;100.00;102027.16;4912094;29;20047;-39
2023/10/06 06:55:37;;;;;;;3.28;1.15;;;;;;;22.17;100.00;102026.34;4930214;29;20134;-41
2023/10/06 06:58:10;;;;;;;1.85;1.00;;;;;;;22.17;100.00;102026.34;4925422;29;20052;-41
2023/10/06 07:00:42;;;;;;;2.85;1.05;;;;;;;22.18;100.00;102033.59;4930462;29;20051;-39
2023/10/06 07:03:10;;;;;;;1.40;0.85;;;;;;;22.23;100.00;102037.06;4926959;29;20044;-40
2023/10/06 07:05:38;;;;;;;6.72;1.23;;;;;;;22.18;100.00;102044.91;4925916;29;20075;-39
2023/10/06 07:08:05;;;;;;;1.75;0.90;;;;;;;22.27;100.00;102038.50;4931326;29;20086;-40
2023/10/06 07:10:33;;;;;;;2.97;1.10;;;;;;;22.21;100.00;102046.06;4931326;29;20054;-39
2023/10/06 07:13:00;;;;;;;2.03;1.00;;;;;;;22.20;100.00;102040.84;4930316;29;20043;-39
2023/10/06 07:15:30;;;;;;;2.25;0.90;;;;;;;22.17;100.00;102037.69;4931066;29;20056;-41
2023/10/06 07:17:58;;;;;;;8.07;1.08;;;;;;;22.21;100.00;102031.09;4931113;29;20052;-37
2023/10/06 07:20:30;;;;;;;5.03;1.30;;;;;;;22.20;100.00;102027.47;4928180;29;20534;-39
2023/10/06 07:23:01;;;;;;;2.38;0.98;;;;;;;22.24;100.00;102018.81;4935122;29;20047;-39
2023/10/06 07:25:28;;;;;;;2.60;1.27;;;;;;;22.20;100.00;102012.53;4927974;29;20569;-39
2023/10/06 07:27:57;;;;;;;6.78;1.15;;;;;;;22.23;100.00;102018.03;4932844;29;20059;-41
2023/10/06 07:30:27;;;;;;;6.65;1.20;;;;;;;22.22;100.00;102021.31;4930211;29;20142;-40
2023/10/06 07:32:54;;;;;;;5.72;1.42;;;;;;;22.22;100.00;102010.00;4929902;29;20594;-39
2023/10/06 07:38:13;;;;;;;8.57;1.75;;;;;;;22.13;100.00;102013.59;4934526;29;20141;-39
2023/10/06 07:40:42;;;;;;;9.98;2.17;;;;;;;22.09;100.00;101998.78;4934486;29;20079;-39
2023/10/06 07:43:10;;;;;;;10.38;2.08;;;;;;;22.10;100.00;102015.31;4934884;29;20054;-39
2023/10/06 07:45:37;;;;;;;4.70;1.50;;;;;;;22.09;100.00;102008.09;4931875;29;20056;-39
2023/10/06 07:48:05;;;;;;;8.77;2.10;;;;;;;22.05;100.00;102017.97;4927944;29;20051;-41
2023/10/06 07:50:36;;;;;;;9.05;2.20;;;;;;;22.01;100.00;102023.00;4933096;29;20526;-42
2023/10/06 07:53:03;;;;;;;8.57;1.88;;;;;;;21.99;100.00;102026.28;4932873;29;20044;-40
2023/10/06 07:55:31;;;;;;;9.27;1.83;;;;;;;22.01;100.00;102023.78;4934710;29;20119;-36
2023/10/06 07:58:00;;;;;;;8.23;2.15;;;;;;;22.04;100.00;102037.00;4934319;29;20139;-39
2023/10/06 08:00:30;;;;;;;7.30;2.40;;;;;;;22.00;100.00;102044.06;4926580;29;20822;-39
2023/10/06 08:03:01;;;;;;;5.72;2.25;;;;;;;22.05;100.00;102040.63;4933257;29;20539;-40
2023/10/06 08:05:28;;;;;;;9.65;2.60;;;;;;;22.01;100.00;102045.66;4930970;29;20126;-37
2023/10/06 08:07:59;;;;;;;12.02;2.60;;;;;;;22.02;100.00;102052.88;4934053;29;20419;-40
2023/10/06 08:10:29;;;;;;;10.20;2.30;;;;;;;22.01;100.00;102056.97;4934145;29;20054;-39
2023/10/06 08:13:00;;;;;;;9.38;2.42;;;;;;;21.94;100.00;102072.19;4930913;29;20213;-39
2023/10/06 08:15:28;;;;;;;10.52;2.30;;;;;;;21.92;100.00;102049.22;4932852;29;20061;-38
2023/10/06 08:17:55;;;;;;;11.95;2.28;;;;;;;21.91;100.00;102047.63;4932777;29;20506;-39
2023/10/06 08:20:27;;;;;;;8.45;2.20;;;;;;;21.93;100.00;102042.31;4929742;29;20139;-38
2023/10/06 08:22:54;;;;;;;9.57;2.20;;;;;;;21.92;100.00;102046.41;4934311;29;20087;-37
2023/10/06 08:25:24;;;;;;;10.95;2.15;;;;;;;21.89;100.00;102053.00;4933729;29;20047;-39
2023/10/06 08:27:51;;;;;;;8.13;2.40;;;;;;;21.91;100.00;102055.34;4934036;29;20051;-40
2023/10/06 08:30:19;;;;;;;10.70;2.53;;;;;;;21.93;100.00;102055.66;4933476;29;20110;-38
2023/10/06 08:32:48;;;;;;;8.60;2.13;;;;;;;21.90;100.00;102057.38;4931679;29;20046;-38
2023/10/06 08:35:16;;;;;;;8.30;2.35;;;;;;;21.91;100.00;102066.69;4932179;29;20106;-41
2023/10/06 08:37:43;;;;;;;7.90;2.55;;;;;;;21.97;100.00;102065.59;4930052;29;20055;-39
2023/10/06 08:40:19;;;;;;;13.40;2.60;;;;;;;21.92;100.00;102065.41;4933184;29;20518;-40
2023/10/06 08:42:51;;;;;;;11.85;2.78;;;;;;;21.89;100.00;102069.19;4933645;29;20418;-39
2023/10/06 08:45:22;;;;;;;13.07;2.90;;;;;;;21.86;100.00;102065.25;4933872;29;20058;-37
2023/10/06 08:47:50;;;;;;;10.38;3.05;;;;;;;21.84;100.00;102059.22;4931207;29;20115;-39
2023/10/06 08:50:29;;;;;;;13.57;2.55;;;;;;;21.83;100.00;102056.88;4926655;29;20055;-40
2023/10/06 08:52:58;;;;;;;10.75;3.13;;;;;;;21.85;100.00;102049.50;4929685;29;20111;-39
2023/10/06 08:55:29;;;;;;;11.10;3.17;;;;;;;21.87;100.00;102035.66;4931766;29;20055;-41
2023/10/06 08:58:00;;;;;;;10.23;2.83;;;;;;;21.91;100.00;102044.81;4929848;29;20044;-40
2023/10/06 09:00:34;;;;;;;11.93;3.10;;;;;;;21.95;100.00;102047.50;4933465;29;20048;-42
2023/10/06 09:03:07;;;;;;;9.23;3.45;;;;;;;21.98;100.00;102055.84;4915755;29;20499;-38
2023/10/06 09:05:38;;;;;;;9.55;2.58;;;;;;;21.98;100.00;102049.41;4933080;29;20083;-39
2023/10/06 09:08:07;;;;;;;8.88;2.97;;;;;;;21.97;100.00;102051.44;4931389;29;20138;-40
2023/10/06 09:10:48;;;;;;;8.48;2.45;;;;;;;21.99;100.00;102057.44;4933090;29;20051;-40
2023/10/06 09:13:19;;;;;;;11.38;2.35;;;;;;;22.00;100.00;102053.34;4933016;29;20084;-41
2023/10/06 09:16:06;;;;;;;7.68;2.20;;;;;;;22.00;100.00;102047.69;4933162;29;20502;-38
2023/10/06 09:18:35;;;;;;;7.32;2.10;;;;;;;22.03;100.00;102054.44;4935346;29;20047;-39
2023/10/06 09:21:21;;;;;;;12.60;2.50;;;;;;;22.04;100.00;102045.50;4934488;29;20059;-46
2023/10/06 09:23:49;;;;;;;6.47;2.20;;;;;;;22.04;100.00;102044.72;4930441;29;20533;-46
2023/10/06 09:26:26;;;;;;;8.52;2.35;;;;;;;22.00;100.00;102038.38;4932530;29;20059;-46
2023/10/06 09:29:02;;;;;;;9.93;2.25;;;;;;;22.04;100.00;102039.84;4930550;29;20131;-47
2023/10/06 09:31:46;;;;;;;8.25;2.45;;;;;;;22.05;100.00;102038.56;4932391;29;20051;-46
2023/10/06 09:34:23;;;;;;;7.88;2.47;;;;;;;22.04;100.00;102036.22;4934393;29;20047;-47
2023/10/06 09:36:51;;;;;;;9.23;2.35;;;;;;;21.98;100.00;102030.34;4934352;29;20074;-48
2023/10/06 09:39:33;;;;;;;11.02;2.70;;;;;;;21.97;100.00;102030.81;4938382;29;20051;-47
2023/10/06 09:42:07;;;;;;;17.63;3.17;;;;;;;21.97;100.00;102031.63;4931089;29;20515;-47
2023/10/06 09:44:35;;;;;;;10.73;2.60;;;;;;;22.03;100.00;102026.94;4917720;29;20061;-47
2023/10/06 09:47:04;;;;;;;9.70;2.70;;;;;;;22.02;100.00;102036.69;4926887;29;20080;-48
2023/10/06 09:49:31;;;;;;;10.40;2.90;;;;;;;21.99;100.00;102022.66;4926372;29;20056;-46
2023/10/06 09:52:03;;;;;;;11.07;2.70;;;;;;;21.98;100.00;102023.94;4911473;29;20103;-47
2023/10/06 09:54:30;;;;;;;11.45;3.35;;;;;;;21.96;100.00;102015.91;4928722;29;20059;-47
2023/10/06 09:56:59;;;;;;;10.85;3.03;;;;;;;21.93;100.00;102004.69;4931849;29;20077;-46
2023/10/06 09:59:26;;;;;;;8.68;2.85;;;;;;;21.93;100.00;102014.00;4932656;29;20051;-47
2023/10/06 10:01:56;;;;;;;12.90;3.30;;;;;;;21.90;100.00;102014.91;4930460;29;20058;-46
2023/10/06 10:04:29;;;;;;;12.23;3.28;;;;;;;21.88;100.00;102011.75;4927577;29;20570;-48
2023/10/06 10:06:56;;;;;;;15.07;3.20;;;;;;;21.90;100.00;102005.63;4932049;29;20503;-48
2023/10/06 10:09:24;;;;;;;11.35;3.85;;;;;;;21.86;100.00;102005.78;4930200;29;20051;-48
2023/10/06 10:12:23;;;;;;;13.20;3.08;;;;;;;21.84;100.00;102002.63;4923788;29;20134;-46
2023/10/06 10:15:32;;;;;;;12.73;3.20;;;;;;;21.88;100.00;102003.25;4929337;29;20047;-46
2023/10/06 10:18:38;;;;;;;12.85;3.15;;;;;;;21.83;100.00;102005.91;4927489;29;20495;-45
2023/10/06 10:21:11;;;;;;;15.05;3.30;;;;;;;21.77;100.00;102002.91;4928773;29;20079;-47
2023/10/06 10:23:40;;;;;;;19.55;3.95;;;;;;;21.77;100.00;102004.97;4925675;29;20040;-45
2023/10/06 10:26:22;;;;;;;12.13;3.58;;;;;;;21.77;100.00;102002.91;4923366;29;20602;-47
2023/10/06 10:29:15;;;;;;;14.73;3.83;;;;;;;21.86;100.00;102005.78;4931862;29;20795;-47
2023/10/06 10:31:51;;;;;;;16.25;4.45;;;;;;;21.95;100.00;101994.50;4930596;29;20040;-46
2023/10/06 10:34:33;;;;;;;12.33;3.40;;;;;;;21.94;100.00;101990.06;4925207;29;20047;-47
2023/10/06 10:37:04;;;;;;;13.02;3.80;;;;;;;22.11;100.00;101987.78;4927524;29;20130;-48
2023/10/06 10:39:52;;;;;;;7.68;2.55;;;;;;;22.14;100.00;101989.66;4930611;29;20055;-47
2023/10/06 10:42:37;;;;;;;9.70;2.88;;;;;;;22.20;100.00;101995.53;4930417;29;20062;-47
2023/10/06 10:45:45;;;;;;;8.93;2.78;;;;;;;22.19;100.00;101986.22;4928881;29;20125;-49
2023/10/06 10:48:13;;;;;;;13.43;3.60;;;;;;;22.11;100.00;101988.56;4874249;29;20053;-46
2023/10/06 10:50:52;;;;;;;9.40;2.83;;;;;;;22.13;100.00;101984.50;4869778;29;20427;-49
2023/10/06 10:53:23;;;;;;;16.13;2.88;;;;;;;22.09;100.00;101985.44;4869349;29;20053;-48
2023/10/06 10:55:50;;;;;;;10.77;2.80;;;;;;;22.13;100.00;101973.94;4868673;29;20057;-47
2023/10/06 10:58:49;;;;;;;12.73;3.15;;;;;;;22.15;100.00;101977.09;4869641;29;20053;-47
2023/10/06 11:01:42;;;;;;;15.27;3.08;;;;;;;22.17;100.00;101968.13;4848489;29;20581;-48
2023/10/06 11:07:07;;;;;;;8.98;3.00;;;;;;;22.13;100.00;101950.50;4868635;29;20681;-48
2023/10/06 11:09:40;;;;;;;7.38;2.50;;;;;;;22.25;100.00;101953.22;4873300;29;20084;-47
2023/10/06 11:12:16;;;;;;;10.35;3.10;;;;;;;22.22;100.00;101959.00;4871310;29;20053;-47
2023/10/06 11:14:52;;;;;;;9.57;3.15;;;;;;;22.22;100.00;101948.47;4867655;29;20044;-48
2023/10/06 11:17:23;;;;;;;11.48;2.72;;;;;;;22.26;100.00;101936.97;4854955;29;20131;-48
2023/10/06 11:20:00;;;;;;;15.05;3.30;;;;;;;22.21;100.00;101940.44;4918732;29;20181;-47
2023/10/06 11:22:32;;;;;;;12.57;3.13;;;;;;;22.27;100.00;101942.19;4926989;29;20055;-48
2023/10/06 11:25:03;;;;;;;8.27;2.72;;;;;;;22.22;100.00;101936.34;4929656;29;20079;-47
2023/10/06 11:27:30;;;;;;;9.23;3.42;;;;;;;22.20;100.00;101925.50;4928760;29;20753;-46
2023/10/06 11:29:58;;;;;;;13.93;2.80;;;;;;;22.20;100.00;101938.88;4915554;29;20575;-45
2023/10/06 11:32:28;;;;;;;10.18;2.78;;;;;;;22.18;100.00;101931.63;4922887;29;20055;-45
2023/10/06 11:34:55;;;;;;;10.38;2.58;;;;;;;22.18;100.00;101928.78;4904194;29;20138;-45
2023/10/06 11:37:25;;;;;;;11.85;3.58;;;;;;;22.22;100.00;101925.81;4925773;29;20054;-47
2023/10/06 11:39:53;;;;;;;10.82;2.88;;;;;;;22.22;100.00;101925.81;4922278;29;20052;-45
2023/10/06 11:42:26;;;;;;;11.27;2.67;;;;;;;22.21;100.00;101924.25;4924228;29;20071;-46
2023/10/06 11:44:53;;;;;;;7.18;2.40;;;;;;;22.22;100.00;101933.50;4923525;29;20115;-46